sensor_id;sensor_type;location;lat;lon;timestamp;P1;durP1;ratioP1;P2;durP2;ratioP2
11305;SDS011;5708;50.660;6.778;2023-02-01T00:02:22;21.27;;;6.97;;
11305;SDS011;5708;50.660;6.778;2023-02-01T00:04:47;21.60;;;7.13;;
11305;SDS011;5708;50.660;6.778;2023-02-01T00:07:12;17.25;;;7.25;;
11305;SDS011;5708;50.660;6.778;2023-02-01T00:09:38;21.90;;;7.13;;
11305;SDS011;5708;50.660;6.778;2023-02-01T00:12:03;19.48;;;6.70;;
11305;SDS011;5708;50.660;6.778;2023-02-01T00:14:29;22.17;;;7.40;;
11305;SDS011;5708;50.660;6.778;2023-02-01T00:16:54;20.58;;;7.25;;
11305;SDS011;5708;50.660;6.778;2023-02-01T00:19:20;17.83;;;5.82;;
11305;SDS011;5708;50.660;6.778;2023-02-01T00:21:45;20.80;;;6.60;;
11305;SDS011;5708;50.660;6.778;2023-02-01T00:24:11;19.88;;;6.78;;
11305;SDS011;5708;50.660;6.778;2023-02-01T00:26:41;19.65;;;6.22;;
11305;SDS011;5708;50.660;6.778;2023-02-01T00:29:15;19.73;;;6.15;;
11305;SDS011;5708;50.660;6.778;2023-02-01T00:31:42;19.38;;;5.93;;
11305;SDS011;5708;50.660;6.778;2023-02-01T00:34:09;19.73;;;6.13;;
11305;SDS011;5708;50.660;6.778;2023-02-01T00:36:40;19.92;;;6.00;;
11305;SDS011;5708;50.660;6.778;2023-02-01T00:39:06;21.48;;;7.70;;
11305;SDS011;5708;50.660;6.778;2023-02-01T00:41:31;22.90;;;7.03;;
11305;SDS011;5708;50.660;6.778;2023-02-01T00:43:56;18.52;;;6.10;;
11305;SDS011;5708;50.660;6.778;2023-02-01T00:46:22;17.17;;;5.97;;
11305;SDS011;5708;50.660;6.778;2023-02-01T00:48:47;21.60;;;6.28;;
11305;SDS011;5708;50.660;6.778;2023-02-01T00:51:23;21.83;;;6.38;;
11305;SDS011;5708;50.660;6.778;2023-02-01T00:53:50;20.40;;;5.70;;
11305;SDS011;5708;50.660;6.778;2023-02-01T00:56:15;16.00;;;5.95;;
11305;SDS011;5708;50.660;6.778;2023-02-01T00:58:41;16.77;;;5.82;;
11305;SDS011;5708;50.660;6.778;2023-02-01T01:03:40;21.17;;;6.05;;
11305;SDS011;5708;50.660;6.778;2023-02-01T01:06:09;20.20;;;6.28;;
11305;SDS011;5708;50.660;6.778;2023-02-01T01:08:37;24.33;;;6.32;;
11305;SDS011;5708;50.660;6.778;2023-02-01T01:11:11;22.63;;;6.05;;
11305;SDS011;5708;50.660;6.778;2023-02-01T01:13:38;20.70;;;5.85;;
11305;SDS011;5708;50.660;6.778;2023-02-01T01:16:04;21.55;;;6.50;;
11305;SDS011;5708;50.660;6.778;2023-02-01T01:18:30;18.83;;;6.43;;
11305;SDS011;5708;50.660;6.778;2023-02-01T01:20:56;25.48;;;6.30;;
11305;SDS011;5708;50.660;6.778;2023-02-01T01:23:22;19.52;;;5.38;;
11305;SDS011;5708;50.660;6.778;2023-02-01T01:25:47;18.73;;;6.13;;
11305;SDS011;5708;50.660;6.778;2023-02-01T01:28:12;22.45;;;5.75;;
11305;SDS011;5708;50.660;6.778;2023-02-01T01:30:38;22.92;;;5.90;;
11305;SDS011;5708;50.660;6.778;2023-02-01T01:33:03;24.73;;;6.72;;
11305;SDS011;5708;50.660;6.778;2023-02-01T01:35:29;18.35;;;6.13;;
11305;SDS011;5708;50.660;6.778;2023-02-01T01:37:57;18.55;;;6.32;;
11305;SDS011;5708;50.660;6.778;2023-02-01T01:40:23;28.15;;;6.78;;
11305;SDS011;5708;50.660;6.778;2023-02-01T01:42:48;17.08;;;6.05;;
11305;SDS011;5708;50.660;6.778;2023-02-01T01:45:23;18.92;;;6.65;;
11305;SDS011;5708;50.660;6.778;2023-02-01T01:47:52;17.02;;;6.40;;
11305;SDS011;5708;50.660;6.778;2023-02-01T01:50:20;19.23;;;6.25;;
11305;SDS011;5708;50.660;6.778;2023-02-01T01:52:49;20.70;;;6.68;;
11305;SDS011;5708;50.660;6.778;2023-02-01T01:55:16;26.27;;;7.22;;
11305;SDS011;5708;50.660;6.778;2023-02-01T01:57:44;23.10;;;6.45;;
11305;SDS011;5708;50.660;6.778;2023-02-01T02:00:14;21.70;;;6.43;;
11305;SDS011;5708;50.660;6.778;2023-02-01T02:02:41;23.58;;;6.47;;
11305;SDS011;5708;50.660;6.778;2023-02-01T02:05:08;25.77;;;6.60;;
11305;SDS011;5708;50.660;6.778;2023-02-01T02:07:38;21.75;;;5.88;;
11305;SDS011;5708;50.660;6.778;2023-02-01T02:10:06;19.77;;;6.40;;
11305;SDS011;5708;50.660;6.778;2023-02-01T02:12:35;26.23;;;6.45;;
11305;SDS011;5708;50.660;6.778;2023-02-01T02:15:03;24.00;;;6.50;;
11305;SDS011;5708;50.660;6.778;2023-02-01T02:17:39;23.23;;;5.57;;
11305;SDS011;5708;50.660;6.778;2023-02-01T02:39:49;19.67;;;5.05;;
11305;SDS011;5708;50.660;6.778;2023-02-01T02:42:29;19.70;;;5.32;;
11305;SDS011;5708;50.660;6.778;2023-02-01T02:48:11;19.75;;;5.22;;
11305;SDS011;5708;50.660;6.778;2023-02-01T02:50:48;20.70;;;5.35;;
11305;SDS011;5708;50.660;6.778;2023-02-01T02:54:20;26.70;;;6.32;;
11305;SDS011;5708;50.660;6.778;2023-02-01T02:56:43;19.58;;;5.22;;
11305;SDS011;5708;50.660;6.778;2023-02-01T02:59:27;16.65;;;4.63;;
11305;SDS011;5708;50.660;6.778;2023-02-01T03:02:12;22.85;;;5.10;;
11305;SDS011;5708;50.660;6.778;2023-02-01T03:04:56;21.50;;;4.60;;
11305;SDS011;5708;50.660;6.778;2023-02-01T03:13:03;19.17;;;4.50;;
11305;SDS011;5708;50.660;6.778;2023-02-01T03:15:56;24.65;;;5.15;;
11305;SDS011;5708;50.660;6.778;2023-02-01T03:21:21;22.05;;;4.90;;
11305;SDS011;5708;50.660;6.778;2023-02-01T03:23:49;20.48;;;4.35;;
11305;SDS011;5708;50.660;6.778;2023-02-01T03:26:17;19.02;;;4.85;;
11305;SDS011;5708;50.660;6.778;2023-02-01T03:28:47;22.73;;;4.53;;
11305;SDS011;5708;50.660;6.778;2023-02-01T03:31:15;22.20;;;4.93;;
11305;SDS011;5708;50.660;6.778;2023-02-01T03:33:40;20.85;;;4.55;;
11305;SDS011;5708;50.660;6.778;2023-02-01T03:36:15;17.20;;;4.78;;
11305;SDS011;5708;50.660;6.778;2023-02-01T03:38:49;24.45;;;6.07;;
11305;SDS011;5708;50.660;6.778;2023-02-01T03:41:33;19.77;;;4.95;;
11305;SDS011;5708;50.660;6.778;2023-02-01T03:44:06;24.30;;;6.05;;
11305;SDS011;5708;50.660;6.778;2023-02-01T03:46:46;18.85;;;5.97;;
11305;SDS011;5708;50.660;6.778;2023-02-01T03:49:23;20.58;;;6.40;;
11305;SDS011;5708;50.660;6.778;2023-02-01T03:51:51;23.05;;;6.75;;
11305;SDS011;5708;50.660;6.778;2023-02-01T03:54:17;23.90;;;6.32;;
11305;SDS011;5708;50.660;6.778;2023-02-01T03:56:43;23.23;;;6.70;;
11305;SDS011;5708;50.660;6.778;2023-02-01T03:59:10;23.70;;;7.45;;
11305;SDS011;5708;50.660;6.778;2023-02-01T04:01:36;22.35;;;6.85;;
11305;SDS011;5708;50.660;6.778;2023-02-01T04:04:01;21.08;;;6.60;;
11305;SDS011;5708;50.660;6.778;2023-02-01T04:06:26;21.67;;;6.55;;
11305;SDS011;5708;50.660;6.778;2023-02-01T04:08:52;26.08;;;7.38;;
11305;SDS011;5708;50.660;6.778;2023-02-01T04:11:17;19.88;;;6.13;;
11305;SDS011;5708;50.660;6.778;2023-02-01T04:13:43;18.08;;;6.00;;
11305;SDS011;5708;50.660;6.778;2023-02-01T04:16:09;22.58;;;6.78;;
11305;SDS011;5708;50.660;6.778;2023-02-01T04:18:34;21.08;;;6.78;;
11305;SDS011;5708;50.660;6.778;2023-02-01T04:21:00;20.75;;;6.32;;
11305;SDS011;5708;50.660;6.778;2023-02-01T04:23:27;24.92;;;6.35;;
11305;SDS011;5708;50.660;6.778;2023-02-01T04:25:53;20.75;;;6.13;;
11305;SDS011;5708;50.660;6.778;2023-02-01T04:28:18;24.52;;;5.75;;
11305;SDS011;5708;50.660;6.778;2023-02-01T04:30:45;21.55;;;6.18;;
11305;SDS011;5708;50.660;6.778;2023-02-01T04:33:11;21.08;;;5.75;;
11305;SDS011;5708;50.660;6.778;2023-02-01T04:35:39;24.15;;;6.32;;
11305;SDS011;5708;50.660;6.778;2023-02-01T04:38:04;21.98;;;6.13;;
11305;SDS011;5708;50.660;6.778;2023-02-01T04:40:30;22.27;;;6.05;;
11305;SDS011;5708;50.660;6.778;2023-02-01T04:42:55;24.05;;;6.32;;
11305;SDS011;5708;50.660;6.778;2023-02-01T04:45:20;23.63;;;5.72;;
11305;SDS011;5708;50.660;6.778;2023-02-01T04:47:46;24.73;;;5.88;;
11305;SDS011;5708;50.660;6.778;2023-02-01T04:50:13;18.95;;;5.40;;
11305;SDS011;5708;50.660;6.778;2023-02-01T04:52:38;19.42;;;5.43;;
11305;SDS011;5708;50.660;6.778;2023-02-01T04:55:03;19.05;;;4.53;;
11305;SDS011;5708;50.660;6.778;2023-02-01T04:57:29;19.23;;;5.03;;
11305;SDS011;5708;50.660;6.778;2023-02-01T04:59:54;19.98;;;4.78;;
11305;SDS011;5708;50.660;6.778;2023-02-01T05:02:21;20.13;;;4.40;;
11305;SDS011;5708;50.660;6.778;2023-02-01T05:04:46;20.88;;;4.47;;
11305;SDS011;5708;50.660;6.778;2023-02-01T05:07:11;21.90;;;4.45;;
11305;SDS011;5708;50.660;6.778;2023-02-01T05:09:37;21.77;;;4.28;;
11305;SDS011;5708;50.660;6.778;2023-02-01T05:12:02;19.08;;;4.32;;
11305;SDS011;5708;50.660;6.778;2023-02-01T05:15:04;21.35;;;4.00;;
11305;SDS011;5708;50.660;6.778;2023-02-01T05:17:30;18.42;;;3.63;;
11305;SDS011;5708;50.660;6.778;2023-02-01T05:19:55;20.40;;;3.50;;
11305;SDS011;5708;50.660;6.778;2023-02-01T05:22:21;14.23;;;3.22;;
11305;SDS011;5708;50.660;6.778;2023-02-01T05:24:46;25.30;;;3.88;;
11305;SDS011;5708;50.660;6.778;2023-02-01T05:27:11;20.90;;;3.75;;
11305;SDS011;5708;50.660;6.778;2023-02-01T05:29:37;20.92;;;4.00;;
11305;SDS011;5708;50.660;6.778;2023-02-01T05:32:02;17.75;;;3.47;;
11305;SDS011;5708;50.660;6.778;2023-02-01T05:34:28;20.92;;;4.03;;
11305;SDS011;5708;50.660;6.778;2023-02-01T05:36:53;17.75;;;4.22;;
11305;SDS011;5708;50.660;6.778;2023-02-01T05:39:18;24.23;;;3.58;;
11305;SDS011;5708;50.660;6.778;2023-02-01T05:41:44;18.75;;;3.75;;
11305;SDS011;5708;50.660;6.778;2023-02-01T05:44:10;21.58;;;4.10;;
11305;SDS011;5708;50.660;6.778;2023-02-01T05:46:35;18.83;;;3.90;;
11305;SDS011;5708;50.660;6.778;2023-02-01T05:49:01;22.35;;;4.72;;
11305;SDS011;5708;50.660;6.778;2023-02-01T05:51:26;13.88;;;3.67;;
11305;SDS011;5708;50.660;6.778;2023-02-01T05:53:52;22.52;;;4.35;;
11305;SDS011;5708;50.660;6.778;2023-02-01T05:56:17;20.60;;;4.32;;
11305;SDS011;5708;50.660;6.778;2023-02-01T05:58:42;17.75;;;3.85;;
11305;SDS011;5708;50.660;6.778;2023-02-01T06:01:08;21.67;;;4.35;;
11305;SDS011;5708;50.660;6.778;2023-02-01T06:03:33;21.35;;;4.45;;
11305;SDS011;5708;50.660;6.778;2023-02-01T06:05:59;16.17;;;3.95;;
11305;SDS011;5708;50.660;6.778;2023-02-01T06:08:25;20.08;;;4.90;;
11305;SDS011;5708;50.660;6.778;2023-02-01T06:10:56;19.80;;;4.75;;
11305;SDS011;5708;50.660;6.778;2023-02-01T06:13:25;21.52;;;4.15;;
11305;SDS011;5708;50.660;6.778;2023-02-01T06:15:50;19.75;;;3.72;;
11305;SDS011;5708;50.660;6.778;2023-02-01T06:18:16;23.13;;;4.55;;
11305;SDS011;5708;50.660;6.778;2023-02-01T06:20:41;20.55;;;4.85;;
11305;SDS011;5708;50.660;6.778;2023-02-01T06:23:07;21.65;;;4.50;;
11305;SDS011;5708;50.660;6.778;2023-02-01T06:25:33;21.35;;;4.97;;
11305;SDS011;5708;50.660;6.778;2023-02-01T06:28:01;22.77;;;5.53;;
11305;SDS011;5708;50.660;6.778;2023-02-01T06:30:27;20.73;;;5.22;;
11305;SDS011;5708;50.660;6.778;2023-02-01T06:32:53;25.17;;;5.22;;
11305;SDS011;5708;50.660;6.778;2023-02-01T06:35:18;23.80;;;5.70;;
11305;SDS011;5708;50.660;6.778;2023-02-01T06:37:44;31.73;;;5.40;;
11305;SDS011;5708;50.660;6.778;2023-02-01T06:40:09;19.30;;;4.55;;
11305;SDS011;5708;50.660;6.778;2023-02-01T06:42:35;19.27;;;4.70;;
11305;SDS011;5708;50.660;6.778;2023-02-01T06:45:00;20.23;;;4.68;;
11305;SDS011;5708;50.660;6.778;2023-02-01T06:47:26;21.83;;;5.65;;
11305;SDS011;5708;50.660;6.778;2023-02-01T06:49:51;23.50;;;4.20;;
11305;SDS011;5708;50.660;6.778;2023-02-01T06:52:17;21.40;;;4.65;;
11305;SDS011;5708;50.660;6.778;2023-02-01T06:54:42;16.38;;;4.63;;
11305;SDS011;5708;50.660;6.778;2023-02-01T06:57:07;18.25;;;4.10;;
11305;SDS011;5708;50.660;6.778;2023-02-01T06:59:33;19.92;;;5.22;;
11305;SDS011;5708;50.660;6.778;2023-02-01T07:01:58;21.35;;;4.85;;
11305;SDS011;5708;50.660;6.778;2023-02-01T07:04:23;20.45;;;5.15;;
11305;SDS011;5708;50.660;6.778;2023-02-01T07:06:49;16.80;;;4.68;;
11305;SDS011;5708;50.660;6.778;2023-02-01T07:09:14;15.50;;;4.22;;
11305;SDS011;5708;50.660;6.778;2023-02-01T07:11:39;24.63;;;5.18;;
11305;SDS011;5708;50.660;6.778;2023-02-01T07:14:09;18.83;;;4.95;;
11305;SDS011;5708;50.660;6.778;2023-02-01T07:16:35;19.85;;;4.07;;
11305;SDS011;5708;50.660;6.778;2023-02-01T07:19:01;15.73;;;4.55;;
11305;SDS011;5708;50.660;6.778;2023-02-01T07:21:27;23.48;;;4.82;;
11305;SDS011;5708;50.660;6.778;2023-02-01T07:23:53;25.23;;;4.63;;
11305;SDS011;5708;50.660;6.778;2023-02-01T07:26:19;23.52;;;4.55;;
11305;SDS011;5708;50.660;6.778;2023-02-01T07:28:44;21.13;;;4.65;;
11305;SDS011;5708;50.660;6.778;2023-02-01T07:31:19;26.33;;;5.88;;
11305;SDS011;5708;50.660;6.778;2023-02-01T07:33:46;21.55;;;4.28;;
11305;SDS011;5708;50.660;6.778;2023-02-01T07:36:15;19.35;;;4.18;;
11305;SDS011;5708;50.660;6.778;2023-02-01T07:38:41;18.42;;;4.45;;
11305;SDS011;5708;50.660;6.778;2023-02-01T07:41:07;23.58;;;5.20;;
11305;SDS011;5708;50.660;6.778;2023-02-01T07:43:33;20.98;;;4.25;;
11305;SDS011;5708;50.660;6.778;2023-02-01T07:45:59;22.73;;;5.18;;
11305;SDS011;5708;50.660;6.778;2023-02-01T07:48:25;24.63;;;5.55;;
11305;SDS011;5708;50.660;6.778;2023-02-01T07:50:57;34.17;;;5.65;;
11305;SDS011;5708;50.660;6.778;2023-02-01T07:53:28;24.83;;;5.40;;
11305;SDS011;5708;50.660;6.778;2023-02-01T07:55:54;22.95;;;5.38;;
11305;SDS011;5708;50.660;6.778;2023-02-01T07:58:21;20.52;;;5.13;;
11305;SDS011;5708;50.660;6.778;2023-02-01T08:00:47;17.10;;;4.40;;
11305;SDS011;5708;50.660;6.778;2023-02-01T08:03:31;16.90;;;4.63;;
11305;SDS011;5708;50.660;6.778;2023-02-01T08:05:56;22.88;;;4.63;;
11305;SDS011;5708;50.660;6.778;2023-02-01T08:08:22;23.23;;;5.10;;
11305;SDS011;5708;50.660;6.778;2023-02-01T08:10:47;21.23;;;4.65;;
11305;SDS011;5708;50.660;6.778;2023-02-01T08:13:14;24.15;;;4.68;;
11305;SDS011;5708;50.660;6.778;2023-02-01T08:15:39;24.27;;;4.30;;
11305;SDS011;5708;50.660;6.778;2023-02-01T08:18:05;24.00;;;4.97;;
11305;SDS011;5708;50.660;6.778;2023-02-01T08:20:30;23.95;;;5.18;;
11305;SDS011;5708;50.660;6.778;2023-02-01T08:22:56;20.90;;;4.35;;
11305;SDS011;5708;50.660;6.778;2023-02-01T08:25:22;19.48;;;5.35;;
11305;SDS011;5708;50.660;6.778;2023-02-01T08:27:47;19.55;;;4.35;;
11305;SDS011;5708;50.660;6.778;2023-02-01T08:30:13;22.08;;;4.57;;
11305;SDS011;5708;50.660;6.778;2023-02-01T08:32:38;20.00;;;4.55;;
11305;SDS011;5708;50.660;6.778;2023-02-01T08:35:04;20.35;;;4.32;;
11305;SDS011;5708;50.660;6.778;2023-02-01T08:37:30;22.52;;;4.60;;
11305;SDS011;5708;50.660;6.778;2023-02-01T08:39:55;18.45;;;3.85;;
11305;SDS011;5708;50.660;6.778;2023-02-01T08:42:21;19.15;;;4.03;;
11305;SDS011;5708;50.660;6.778;2023-02-01T08:45:05;19.27;;;3.88;;
11305;SDS011;5708;50.660;6.778;2023-02-01T08:47:32;21.15;;;5.10;;
11305;SDS011;5708;50.660;6.778;2023-02-01T08:49:58;19.73;;;4.15;;
11305;SDS011;5708;50.660;6.778;2023-02-01T08:52:24;15.70;;;4.20;;
11305;SDS011;5708;50.660;6.778;2023-02-01T08:54:49;23.23;;;5.15;;
11305;SDS011;5708;50.660;6.778;2023-02-01T08:57:15;17.80;;;3.92;;
11305;SDS011;5708;50.660;6.778;2023-02-01T08:59:40;14.20;;;3.47;;
11305;SDS011;5708;50.660;6.778;2023-02-01T09:02:05;19.63;;;4.35;;
11305;SDS011;5708;50.660;6.778;2023-02-01T09:04:31;17.17;;;3.85;;
11305;SDS011;5708;50.660;6.778;2023-02-01T09:06:57;17.30;;;3.97;;
11305;SDS011;5708;50.660;6.778;2023-02-01T09:09:27;18.48;;;4.13;;
11305;SDS011;5708;50.660;6.778;2023-02-01T09:11:52;20.20;;;3.92;;
11305;SDS011;5708;50.660;6.778;2023-02-01T09:14:18;18.73;;;3.42;;
11305;SDS011;5708;50.660;6.778;2023-02-01T09:16:43;22.20;;;4.05;;
11305;SDS011;5708;50.660;6.778;2023-02-01T09:19:09;23.85;;;4.18;;
11305;SDS011;5708;50.660;6.778;2023-02-01T09:21:34;20.70;;;4.00;;
11305;SDS011;5708;50.660;6.778;2023-02-01T09:24:00;20.15;;;4.10;;
11305;SDS011;5708;50.660;6.778;2023-02-01T09:26:25;19.70;;;3.80;;
11305;SDS011;5708;50.660;6.778;2023-02-01T09:28:51;19.77;;;4.47;;
11305;SDS011;5708;50.660;6.778;2023-02-01T09:31:16;16.17;;;3.70;;
11305;SDS011;5708;50.660;6.778;2023-02-01T09:33:42;15.80;;;3.72;;
11305;SDS011;5708;50.660;6.778;2023-02-01T09:36:07;21.52;;;3.47;;
11305;SDS011;5708;50.660;6.778;2023-02-01T09:38:33;17.50;;;3.88;;
11305;SDS011;5708;50.660;6.778;2023-02-01T09:40:58;15.50;;;3.85;;
11305;SDS011;5708;50.660;6.778;2023-02-01T09:46:30;19.95;;;3.83;;
11305;SDS011;5708;50.660;6.778;2023-02-01T09:49:01;15.48;;;3.88;;
11305;SDS011;5708;50.660;6.778;2023-02-01T09:51:49;19.60;;;3.75;;
11305;SDS011;5708;50.660;6.778;2023-02-01T09:54:20;22.13;;;4.72;;
11305;SDS011;5708;50.660;6.778;2023-02-01T09:56:48;16.85;;;3.85;;
11305;SDS011;5708;50.660;6.778;2023-02-01T10:01:51;17.35;;;3.45;;
11305;SDS011;5708;50.660;6.778;2023-02-01T10:04:17;22.77;;;3.88;;
11305;SDS011;5708;50.660;6.778;2023-02-01T10:07:04;21.67;;;4.47;;
11305;SDS011;5708;50.660;6.778;2023-02-01T10:21:21;16.40;;;3.25;;
11305;SDS011;5708;50.660;6.778;2023-02-01T10:26:13;18.33;;;3.28;;
11305;SDS011;5708;50.660;6.778;2023-02-01T10:28:51;17.85;;;3.80;;
11305;SDS011;5708;50.660;6.778;2023-02-01T10:31:25;24.77;;;4.70;;
11305;SDS011;5708;50.660;6.778;2023-02-01T10:33:59;19.63;;;4.20;;
11305;SDS011;5708;50.660;6.778;2023-02-01T10:36:34;24.83;;;4.40;;
11305;SDS011;5708;50.660;6.778;2023-02-01T10:39:01;18.52;;;3.70;;
11305;SDS011;5708;50.660;6.778;2023-02-01T10:41:30;19.33;;;4.22;;
11305;SDS011;5708;50.660;6.778;2023-02-01T10:43:57;16.80;;;3.40;;
11305;SDS011;5708;50.660;6.778;2023-02-01T10:46:24;15.13;;;3.40;;
11305;SDS011;5708;50.660;6.778;2023-02-01T10:48:50;23.98;;;3.75;;
11305;SDS011;5708;50.660;6.778;2023-02-01T10:51:22;17.50;;;4.13;;
11305;SDS011;5708;50.660;6.778;2023-02-01T10:53:54;19.27;;;3.95;;
11305;SDS011;5708;50.660;6.778;2023-02-01T10:56:22;22.83;;;3.90;;
11305;SDS011;5708;50.660;6.778;2023-02-01T10:58:48;20.50;;;3.65;;
11305;SDS011;5708;50.660;6.778;2023-02-01T11:01:19;17.88;;;3.75;;
11305;SDS011;5708;50.660;6.778;2023-02-01T11:11:30;22.55;;;4.13;;
11305;SDS011;5708;50.660;6.778;2023-02-01T11:14:17;20.30;;;3.95;;
11305;SDS011;5708;50.660;6.778;2023-02-01T11:16:46;15.60;;;3.45;;
11305;SDS011;5708;50.660;6.778;2023-02-01T11:19:26;15.48;;;3.20;;
11305;SDS011;5708;50.660;6.778;2023-02-01T11:21:55;19.48;;;3.95;;
11305;SDS011;5708;50.660;6.778;2023-02-01T11:24:26;13.40;;;3.00;;
11305;SDS011;5708;50.660;6.778;2023-02-01T11:26:56;17.45;;;3.45;;
11305;SDS011;5708;50.660;6.778;2023-02-01T11:29:22;23.92;;;4.22;;
11305;SDS011;5708;50.660;6.778;2023-02-01T11:31:54;16.63;;;4.00;;
11305;SDS011;5708;50.660;6.778;2023-02-01T11:34:22;15.45;;;3.25;;
11305;SDS011;5708;50.660;6.778;2023-02-01T11:36:50;14.60;;;3.10;;
11305;SDS011;5708;50.660;6.778;2023-02-01T11:39:23;18.50;;;3.10;;
11305;SDS011;5708;50.660;6.778;2023-02-01T11:44:22;15.10;;;3.20;;
11305;SDS011;5708;50.660;6.778;2023-02-01T11:46:54;17.80;;;3.30;;
11305;SDS011;5708;50.660;6.778;2023-02-01T11:49:21;17.80;;;3.50;;
11305;SDS011;5708;50.660;6.778;2023-02-01T11:51:54;14.25;;;2.97;;
11305;SDS011;5708;50.660;6.778;2023-02-01T11:57:14;14.45;;;2.65;;
11305;SDS011;5708;50.660;6.778;2023-02-01T12:07:46;17.90;;;3.40;;
11305;SDS011;5708;50.660;6.778;2023-02-01T12:10:24;21.02;;;3.95;;
11305;SDS011;5708;50.660;6.778;2023-02-01T12:18:38;13.52;;;3.30;;
11305;SDS011;5708;50.660;6.778;2023-02-01T12:23:42;17.35;;;2.97;;
11305;SDS011;5708;50.660;6.778;2023-02-01T12:26:37;15.35;;;3.75;;
11305;SDS011;5708;50.660;6.778;2023-02-01T12:29:16;18.52;;;2.80;;
11305;SDS011;5708;50.660;6.778;2023-02-01T12:44:47;14.70;;;2.95;;
11305;SDS011;5708;50.660;6.778;2023-02-01T12:47:30;13.90;;;3.10;;
11305;SDS011;5708;50.660;6.778;2023-02-01T12:50:20;15.93;;;3.05;;
11305;SDS011;5708;50.660;6.778;2023-02-01T12:52:50;13.50;;;3.00;;
11305;SDS011;5708;50.660;6.778;2023-02-01T12:55:24;19.52;;;3.38;;
11305;SDS011;5708;50.660;6.778;2023-02-01T12:58:03;16.15;;;2.80;;
11305;SDS011;5708;50.660;6.778;2023-02-01T13:00:34;13.23;;;2.63;;
11305;SDS011;5708;50.660;6.778;2023-02-01T13:03:05;17.98;;;2.65;;
11305;SDS011;5708;50.660;6.778;2023-02-01T13:05:58;12.73;;;2.95;;
11305;SDS011;5708;50.660;6.778;2023-02-01T13:14:32;16.17;;;2.60;;
11305;SDS011;5708;50.660;6.778;2023-02-01T13:17:06;11.20;;;2.90;;
11305;SDS011;5708;50.660;6.778;2023-02-01T13:22:17;13.45;;;2.97;;
11305;SDS011;5708;50.660;6.778;2023-02-01T13:24:54;12.52;;;2.55;;
11305;SDS011;5708;50.660;6.778;2023-02-01T13:27:22;14.50;;;2.63;;
11305;SDS011;5708;50.660;6.778;2023-02-01T13:29:56;13.35;;;2.60;;
11305;SDS011;5708;50.660;6.778;2023-02-01T13:38:44;14.23;;;3.17;;
11305;SDS011;5708;50.660;6.778;2023-02-01T13:43:49;13.30;;;3.00;;
11305;SDS011;5708;50.660;6.778;2023-02-01T13:46:16;14.68;;;2.72;;
11305;SDS011;5708;50.660;6.778;2023-02-01T13:51:10;12.10;;;2.88;;
11305;SDS011;5708;50.660;6.778;2023-02-01T13:53:37;15.82;;;2.80;;
11305;SDS011;5708;50.660;6.778;2023-02-01T13:56:11;21.83;;;3.67;;
11305;SDS011;5708;50.660;6.778;2023-02-01T13:58:39;14.40;;;2.60;;
11305;SDS011;5708;50.660;6.778;2023-02-01T14:03:56;13.52;;;2.58;;
11305;SDS011;5708;50.660;6.778;2023-02-01T14:09:34;16.20;;;3.13;;
11305;SDS011;5708;50.660;6.778;2023-02-01T14:16:43;10.23;;;2.25;;
11305;SDS011;5708;50.660;6.778;2023-02-01T14:19:19;13.10;;;2.92;;
11305;SDS011;5708;50.660;6.778;2023-02-01T14:21:46;16.48;;;3.28;;
11305;SDS011;5708;50.660;6.778;2023-02-01T14:26:50;13.02;;;2.42;;
11305;SDS011;5708;50.660;6.778;2023-02-01T14:29:32;13.07;;;2.38;;
11305;SDS011;5708;50.660;6.778;2023-02-01T14:55:55;15.77;;;2.30;;
11305;SDS011;5708;50.660;6.778;2023-02-01T15:03:47;13.63;;;2.95;;
11305;SDS011;5708;50.660;6.778;2023-02-01T15:06:30;11.38;;;2.30;;
11305;SDS011;5708;50.660;6.778;2023-02-01T15:09:12;14.23;;;2.70;;
11305;SDS011;5708;50.660;6.778;2023-02-01T15:14:24;17.33;;;3.10;;
11305;SDS011;5708;50.660;6.778;2023-02-01T15:16:49;14.15;;;2.22;;
11305;SDS011;5708;50.660;6.778;2023-02-01T15:19:18;11.25;;;2.38;;
11305;SDS011;5708;50.660;6.778;2023-02-01T15:21:47;15.20;;;2.72;;
11305;SDS011;5708;50.660;6.778;2023-02-01T15:24:24;12.40;;;2.47;;
11305;SDS011;5708;50.660;6.778;2023-02-01T15:26:52;14.52;;;2.90;;
11305;SDS011;5708;50.660;6.778;2023-02-01T15:29:19;14.80;;;2.25;;
11305;SDS011;5708;50.660;6.778;2023-02-01T15:31:47;12.13;;;2.13;;
11305;SDS011;5708;50.660;6.778;2023-02-01T15:34:14;14.25;;;2.47;;
11305;SDS011;5708;50.660;6.778;2023-02-01T15:36:40;12.77;;;2.17;;
11305;SDS011;5708;50.660;6.778;2023-02-01T15:39:19;14.13;;;2.42;;
11305;SDS011;5708;50.660;6.778;2023-02-01T15:41:54;10.27;;;2.15;;
11305;SDS011;5708;50.660;6.778;2023-02-01T15:46:54;15.00;;;2.20;;
11305;SDS011;5708;50.660;6.778;2023-02-01T15:49:32;10.68;;;2.40;;
11305;SDS011;5708;50.660;6.778;2023-02-01T15:52:02;14.57;;;2.35;;
11305;SDS011;5708;50.660;6.778;2023-02-01T15:54:34;9.05;;;2.08;;
11305;SDS011;5708;50.660;6.778;2023-02-01T15:57:28;13.82;;;2.17;;
11305;SDS011;5708;50.660;6.778;2023-02-01T15:59:56;17.98;;;2.80;;
11305;SDS011;5708;50.660;6.778;2023-02-01T16:02:25;11.95;;;2.33;;
11305;SDS011;5708;50.660;6.778;2023-02-01T16:04:53;18.85;;;2.92;;
11305;SDS011;5708;50.660;6.778;2023-02-01T16:07:30;12.05;;;2.53;;
11305;SDS011;5708;50.660;6.778;2023-02-01T16:09:57;10.80;;;2.47;;
11305;SDS011;5708;50.660;6.778;2023-02-01T16:12:34;14.95;;;2.50;;
11305;SDS011;5708;50.660;6.778;2023-02-01T16:15:11;19.23;;;3.30;;
11305;SDS011;5708;50.660;6.778;2023-02-01T16:17:37;13.43;;;2.40;;
11305;SDS011;5708;50.660;6.778;2023-02-01T16:20:02;17.83;;;2.83;;
11305;SDS011;5708;50.660;6.778;2023-02-01T16:22:28;14.98;;;3.17;;
11305;SDS011;5708;50.660;6.778;2023-02-01T16:24:53;14.40;;;3.28;;
11305;SDS011;5708;50.660;6.778;2023-02-01T16:27:19;15.82;;;3.17;;
11305;SDS011;5708;50.660;6.778;2023-02-01T16:29:46;17.15;;;3.63;;
11305;SDS011;5708;50.660;6.778;2023-02-01T16:32:16;16.98;;;3.50;;
11305;SDS011;5708;50.660;6.778;2023-02-01T16:34:43;14.40;;;2.55;;
11305;SDS011;5708;50.660;6.778;2023-02-01T16:37:11;16.35;;;3.42;;
11305;SDS011;5708;50.660;6.778;2023-02-01T16:39:47;13.00;;;2.80;;
11305;SDS011;5708;50.660;6.778;2023-02-01T16:42:13;18.02;;;3.55;;
11305;SDS011;5708;50.660;6.778;2023-02-01T16:44:39;17.40;;;3.38;;
11305;SDS011;5708;50.660;6.778;2023-02-01T16:47:23;14.18;;;3.00;;
11305;SDS011;5708;50.660;6.778;2023-02-01T16:49:48;13.80;;;3.00;;
11305;SDS011;5708;50.660;6.778;2023-02-01T16:52:18;13.73;;;2.88;;
11305;SDS011;5708;50.660;6.778;2023-02-01T16:54:45;14.55;;;3.42;;
11305;SDS011;5708;50.660;6.778;2023-02-01T16:57:11;16.52;;;3.60;;
11305;SDS011;5708;50.660;6.778;2023-02-01T16:59:37;15.20;;;3.28;;
11305;SDS011;5708;50.660;6.778;2023-02-01T17:02:03;18.77;;;3.97;;
11305;SDS011;5708;50.660;6.778;2023-02-01T17:04:28;13.77;;;3.72;;
11305;SDS011;5708;50.660;6.778;2023-02-01T17:06:53;12.52;;;3.28;;
11305;SDS011;5708;50.660;6.778;2023-02-01T17:09:19;18.63;;;3.85;;
11305;SDS011;5708;50.660;6.778;2023-02-01T17:11:45;15.80;;;3.42;;
11305;SDS011;5708;50.660;6.778;2023-02-01T17:14:19;19.35;;;3.88;;
11305;SDS011;5708;50.660;6.778;2023-02-01T17:16:46;14.80;;;3.25;;
11305;SDS011;5708;50.660;6.778;2023-02-01T17:19:14;16.35;;;4.32;;
11305;SDS011;5708;50.660;6.778;2023-02-01T17:21:44;17.27;;;3.40;;
11305;SDS011;5708;50.660;6.778;2023-02-01T17:24:14;17.85;;;3.70;;
11305;SDS011;5708;50.660;6.778;2023-02-01T17:26:41;19.17;;;3.30;;
11305;SDS011;5708;50.660;6.778;2023-02-01T17:29:07;11.00;;;3.20;;
11305;SDS011;5708;50.660;6.778;2023-02-01T17:31:33;16.17;;;3.72;;
11305;SDS011;5708;50.660;6.778;2023-02-01T17:34:03;15.88;;;3.25;;
11305;SDS011;5708;50.660;6.778;2023-02-01T17:36:28;13.95;;;3.08;;
11305;SDS011;5708;50.660;6.778;2023-02-01T17:38:53;14.35;;;3.28;;
11305;SDS011;5708;50.660;6.778;2023-02-01T17:41:19;15.98;;;3.55;;
11305;SDS011;5708;50.660;6.778;2023-02-01T17:43:44;15.15;;;4.10;;